createdAt,value
2017-06-22T00:00:08.133Z,20.73
2017-06-22T00:03:03.169Z,20.71
2017-06-22T00:05:58.262Z,20.70
2017-06-22T00:08:53.320Z,20.69
2017-06-22T00:11:48.245Z,20.69
2017-06-22T00:14:43.271Z,20.67
2017-06-22T00:17:38.241Z,20.66
2017-06-22T00:20:33.367Z,20.64
2017-06-22T00:23:28.392Z,20.63
2017-06-22T00:26:23.527Z,20.62
2017-06-22T00:29:18.445Z,20.60
2017-06-22T00:32:13.358Z,20.58
2017-06-22T00:35:08.489Z,20.55
2017-06-22T00:38:03.334Z,20.54
2017-06-22T00:40:58.380Z,20.54
2017-06-22T00:43:53.422Z,20.53
2017-06-22T00:46:48.359Z,20.51
2017-06-22T00:49:43.523Z,20.49
2017-06-22T00:52:38.415Z,20.47
2017-06-22T00:55:33.385Z,20.45
2017-06-22T00:58:28.372Z,20.42
2017-06-22T01:01:23.362Z,20.39
2017-06-22T01:04:18.341Z,20.38
2017-06-22T01:10:08.323Z,20.35
2017-06-22T01:13:03.272Z,20.31
2017-06-22T01:15:58.395Z,20.26
2017-06-22T01:18:53.363Z,20.19
2017-06-22T01:21:48.188Z,20.13
2017-06-22T01:24:43.225Z,20.08
2017-06-22T01:27:38.164Z,20.05
2017-06-22T01:30:33.131Z,20.03
2017-06-22T01:33:27.970Z,20.00
2017-06-22T01:36:22.926Z,19.97
2017-06-22T01:39:17.819Z,19.95
2017-06-22T01:42:12.717Z,19.92
2017-06-22T01:45:07.546Z,19.91
2017-06-22T01:48:02.425Z,19.88
2017-06-22T01:50:57.170Z,19.86
2017-06-22T01:53:52.054Z,19.84
2017-06-22T01:56:46.794Z,19.82
2017-06-22T01:59:41.528Z,19.81
2017-06-22T02:02:36.413Z,19.79
2017-06-22T02:05:31.256Z,19.77
2017-06-22T02:08:26.097Z,19.74
2017-06-22T02:11:20.844Z,19.72
2017-06-22T02:14:15.719Z,19.69
2017-06-22T02:17:10.648Z,19.67
2017-06-22T02:20:05.461Z,19.64
2017-06-22T02:23:00.689Z,19.60
2017-06-22T02:25:55.360Z,19.56
2017-06-22T02:28:50.121Z,19.55
2017-06-22T02:31:44.874Z,19.53
2017-06-22T02:34:39.685Z,19.51
2017-06-22T02:37:34.405Z,19.50
2017-06-22T02:40:29.260Z,19.49
2017-06-22T02:43:23.968Z,19.47
2017-06-22T02:46:18.742Z,19.44
2017-06-22T02:49:13.466Z,19.41
2017-06-22T02:52:08.171Z,19.39
2017-06-22T02:55:02.918Z,19.36
2017-06-22T02:57:57.567Z,19.35
2017-06-22T03:00:52.304Z,19.33
2017-06-22T03:03:47.113Z,19.33
2017-06-22T03:06:41.660Z,19.32
2017-06-22T03:09:36.313Z,19.28
2017-06-22T03:12:30.909Z,19.24
2017-06-22T03:15:25.441Z,19.20
2017-06-22T03:18:19.981Z,19.15
2017-06-22T03:21:14.451Z,19.11
2017-06-22T03:24:09.016Z,19.07
2017-06-22T03:27:03.602Z,19.04
2017-06-22T03:29:58.146Z,19.02
2017-06-22T03:32:52.531Z,18.99
2017-06-22T03:36:54.822Z,18.96
2017-06-22T03:42:17.741Z,19.08
2017-06-22T03:45:01.424Z,19.17
2017-06-22T03:47:55.337Z,19.18
2017-06-22T03:54:35.554Z,19.12
2017-06-22T03:57:55.165Z,19.12
2017-06-22T04:00:41.282Z,19.12
2017-06-22T04:04:43.364Z,19.13
2017-06-22T04:08:24.594Z,19.17
2017-06-22T04:13:36.538Z,19.27
2017-06-22T04:16:20.354Z,19.37
2017-06-22T04:21:18.645Z,19.42
2017-06-22T04:33:50.250Z,20.08
2017-06-22T04:36:33.429Z,20.23
2017-06-22T04:39:27.165Z,20.23
2017-06-22T04:42:21.394Z,20.19
2017-06-22T04:45:16.065Z,20.13
2017-06-22T04:48:10.639Z,20.08
2017-06-22T04:53:59.831Z,20.02
2017-06-22T04:56:54.569Z,20.03
2017-06-22T04:59:49.348Z,20.06
2017-06-22T05:02:44.019Z,20.12
2017-06-22T05:05:38.822Z,20.18
2017-06-22T05:08:33.632Z,20.24
2017-06-22T05:11:28.419Z,20.32
2017-06-22T05:14:23.275Z,20.40
2017-06-22T05:17:18.018Z,20.49
2017-06-22T05:20:12.782Z,20.57
2017-06-22T05:23:07.545Z,20.65
2017-06-22T05:26:02.130Z,20.73
2017-06-22T05:28:56.963Z,20.81
2017-06-22T05:31:52.022Z,20.89
2017-06-22T05:34:46.955Z,20.98
2017-06-22T05:37:41.702Z,21.07
2017-06-22T05:40:36.530Z,21.18
2017-06-22T05:43:31.310Z,21.27
2017-06-22T05:46:26.192Z,21.37
2017-06-22T05:49:21.031Z,21.47
2017-06-22T05:52:15.861Z,21.58
2017-06-22T05:55:10.739Z,21.69
2017-06-22T05:58:05.663Z,21.81
2017-06-22T06:01:00.535Z,21.91
2017-06-22T06:03:55.542Z,22.02
2017-06-22T06:06:50.572Z,22.13
2017-06-22T06:09:45.528Z,22.22
2017-06-22T06:12:40.572Z,22.32
2017-06-22T06:15:35.581Z,22.43
2017-06-22T06:18:30.684Z,22.53
2017-06-22T06:21:25.678Z,22.64
2017-06-22T06:24:20.723Z,22.76
2017-06-22T06:27:15.828Z,22.87
2017-06-22T06:30:10.861Z,22.97
2017-06-22T06:33:05.951Z,23.07
2017-06-22T06:36:00.961Z,23.16
2017-06-22T06:38:56.056Z,23.24
2017-06-22T06:41:51.082Z,23.33
2017-06-22T06:44:46.117Z,23.44
2017-06-22T06:47:41.359Z,23.56
2017-06-22T06:50:36.564Z,23.71
2017-06-22T06:53:31.637Z,23.83
2017-06-22T06:56:26.856Z,23.92
2017-06-22T06:59:22.051Z,24.01
2017-06-22T07:02:17.187Z,24.09
2017-06-22T07:05:12.337Z,24.17
2017-06-22T07:08:07.403Z,24.24
2017-06-22T07:11:02.556Z,24.31
2017-06-22T07:13:57.731Z,24.41
2017-06-22T07:16:52.901Z,24.50
2017-06-22T07:22:43.236Z,24.66
2017-06-22T07:25:38.316Z,24.72
2017-06-22T07:28:33.380Z,24.75
2017-06-22T07:31:28.455Z,24.75
2017-06-22T07:34:23.581Z,24.75
2017-06-22T07:37:18.754Z,24.74
2017-06-22T07:40:13.822Z,24.74
2017-06-22T07:43:08.881Z,24.75
2017-06-22T07:46:04.018Z,24.76
2017-06-22T07:48:59.160Z,24.78
2017-06-22T07:51:54.262Z,24.80
2017-06-22T07:54:49.366Z,24.83
2017-06-22T07:57:44.682Z,24.86
2017-06-22T08:00:39.830Z,24.89
2017-06-22T08:03:34.912Z,24.93
2017-06-22T08:06:30.008Z,24.95
2017-06-22T08:09:25.107Z,24.97
2017-06-22T08:12:20.291Z,24.98
2017-06-22T08:15:15.406Z,25.00
2017-06-22T08:18:10.653Z,25.02
2017-06-22T08:21:06.021Z,25.10
2017-06-22T08:24:01.436Z,25.26
2017-06-22T08:26:56.923Z,25.46
2017-06-22T08:29:52.404Z,25.71
2017-06-22T08:32:47.886Z,26.01
2017-06-22T08:35:43.472Z,26.32
2017-06-22T08:38:39.062Z,26.62
2017-06-22T08:41:34.896Z,26.93
2017-06-22T08:44:30.872Z,27.27
2017-06-22T08:47:26.839Z,27.63
2017-06-22T08:50:22.865Z,27.97
2017-06-22T08:53:18.740Z,28.32
2017-06-22T08:56:14.501Z,28.63
2017-06-22T08:59:10.365Z,28.99
2017-06-22T09:02:06.399Z,29.34
2017-06-22T09:05:02.550Z,29.63
2017-06-22T09:07:58.380Z,29.91
2017-06-22T09:10:54.265Z,30.18
2017-06-22T09:13:50.299Z,30.49
2017-06-22T09:16:46.264Z,30.77
2017-06-22T09:19:42.184Z,30.99
2017-06-22T09:22:38.031Z,31.17
2017-06-22T09:25:33.880Z,31.31
2017-06-22T09:28:29.766Z,31.42
2017-06-22T09:31:25.653Z,31.53
2017-06-22T09:34:21.465Z,31.70
2017-06-22T09:37:17.321Z,31.87
2017-06-22T09:40:13.181Z,32.03
2017-06-22T09:43:09.106Z,32.21
2017-06-22T09:46:05.025Z,32.42
2017-06-22T09:49:01.017Z,32.64
2017-06-22T09:51:56.971Z,32.81
2017-06-22T09:54:52.968Z,33.06
2017-06-22T09:57:48.576Z,33.30
2017-06-22T10:00:44.609Z,33.50
2017-06-22T10:03:40.640Z,33.67
2017-06-22T10:06:36.632Z,33.81
2017-06-22T10:09:32.752Z,33.98
2017-06-22T10:12:28.883Z,34.11
2017-06-22T10:15:25.130Z,34.26
2017-06-22T10:18:21.461Z,34.53
2017-06-22T10:21:17.903Z,34.83
2017-06-22T10:24:14.129Z,35.08
2017-06-22T10:27:10.198Z,35.30
2017-06-22T10:30:06.013Z,35.39
2017-06-22T10:33:01.388Z,35.32
2017-06-22T10:35:56.758Z,35.15
2017-06-22T10:38:52.031Z,34.92
2017-06-22T10:41:47.310Z,34.65
2017-06-22T10:44:42.571Z,34.42
2017-06-22T10:47:37.965Z,34.22
2017-06-22T10:50:33.153Z,33.99
2017-06-22T10:53:28.436Z,33.71
2017-06-22T10:56:23.645Z,33.41
2017-06-22T10:59:18.896Z,33.10
2017-06-22T11:02:14.067Z,32.80
2017-06-22T11:05:09.106Z,32.55
2017-06-22T11:08:04.299Z,32.35
2017-06-22T11:10:59.231Z,32.15
2017-06-22T11:13:54.185Z,31.93
2017-06-22T11:16:49.308Z,31.73
2017-06-22T11:19:44.383Z,31.55
2017-06-22T11:22:39.559Z,31.38
2017-06-22T11:25:34.846Z,31.18
2017-06-22T11:28:30.126Z,31.00
2017-06-22T11:31:25.436Z,30.81
2017-06-22T11:34:20.647Z,30.62
2017-06-22T11:37:15.943Z,30.46
2017-06-22T11:40:11.168Z,30.32
2017-06-22T11:43:06.421Z,30.18
2017-06-22T11:46:01.740Z,30.05
2017-06-22T11:48:57.142Z,29.92
2017-06-22T11:51:52.430Z,29.81
2017-06-22T11:54:47.798Z,29.70
2017-06-22T11:57:43.308Z,29.61
2017-06-22T12:00:38.795Z,29.53
2017-06-22T12:03:34.356Z,29.45
2017-06-22T12:06:29.856Z,29.35
2017-06-22T12:09:25.370Z,29.26
2017-06-22T12:12:20.928Z,29.17
2017-06-22T12:15:16.457Z,29.07
2017-06-22T12:18:11.988Z,28.97
2017-06-22T12:21:07.461Z,28.86
2017-06-22T12:24:02.942Z,28.71
2017-06-22T12:26:58.300Z,28.56
2017-06-22T12:29:53.759Z,28.34
2017-06-22T12:32:49.113Z,28.13
2017-06-22T12:35:44.492Z,27.90
2017-06-22T12:38:39.817Z,27.60
2017-06-22T12:41:35.091Z,27.20
2017-06-22T12:44:30.322Z,26.77
2017-06-22T12:47:25.500Z,26.38
2017-06-22T12:50:20.618Z,25.99
2017-06-22T12:53:15.662Z,25.59
2017-06-22T12:56:10.603Z,25.17
2017-06-22T12:59:05.638Z,24.78
2017-06-22T13:02:00.724Z,24.47
2017-06-22T13:04:55.766Z,24.19
2017-06-22T13:07:50.899Z,23.98
2017-06-22T13:14:32.776Z,23.42
